createdAt,value
2018-04-29T00:01:32.701Z,5.13
2018-04-29T00:03:58.643Z,4.43
2018-04-29T00:06:24.580Z,6.10
2018-04-29T00:08:50.474Z,4.57
2018-04-29T00:11:16.671Z,4.10
2018-04-29T00:13:44.667Z,4.45
2018-04-29T00:16:10.558Z,3.78
2018-04-29T00:18:43.926Z,4.40
2018-04-29T00:21:09.819Z,4.35
2018-04-29T00:23:35.713Z,4.73
2018-04-29T00:26:01.565Z,4.30
2018-04-29T00:28:28.467Z,4.43
2018-04-29T00:30:54.385Z,4.28
2018-04-29T00:33:23.512Z,6.73
2018-04-29T00:35:49.434Z,4.65
2018-04-29T00:38:18.780Z,4.60
2018-04-29T00:40:44.720Z,4.72
2018-04-29T00:43:10.656Z,4.37
2018-04-29T00:45:36.559Z,5.00
2018-04-29T00:48:02.469Z,5.67
2018-04-29T00:50:29.411Z,6.53
2018-04-29T00:52:55.284Z,4.20
2018-04-29T00:55:24.089Z,4.23
2018-04-29T00:57:50.018Z,4.80
2018-04-29T01:00:18.817Z,5.40
2018-04-29T01:02:44.707Z,5.78
2018-04-29T01:05:13.572Z,5.10
2018-04-29T01:07:39.487Z,4.10
2018-04-29T01:10:08.167Z,4.90
2018-04-29T01:12:34.120Z,5.75
2018-04-29T01:15:03.134Z,5.33
2018-04-29T01:17:29.047Z,4.40
2018-04-29T01:19:54.988Z,4.77
2018-04-29T01:22:20.875Z,4.87
2018-04-29T01:24:46.839Z,5.77
2018-04-29T01:27:16.229Z,4.53
2018-04-29T01:29:42.136Z,4.47
2018-04-29T01:32:11.252Z,4.80
2018-04-29T01:34:37.144Z,4.40
2018-04-29T01:37:04.187Z,3.73
2018-04-29T01:39:30.107Z,5.22
2018-04-29T01:42:02.778Z,6.20
2018-04-29T01:44:28.696Z,5.70
2018-04-29T01:46:54.619Z,4.07
2018-04-29T01:49:20.524Z,4.83
2018-04-29T01:51:49.524Z,5.07
2018-04-29T01:54:15.448Z,5.00
2018-04-29T01:56:41.324Z,5.57
2018-04-29T01:59:07.218Z,5.77
2018-04-29T02:01:33.103Z,5.97
2018-04-29T02:04:00.932Z,4.63
2018-04-29T02:06:26.832Z,5.57
2018-04-29T02:08:54.889Z,5.87
2018-04-29T02:11:20.811Z,5.97
2018-04-29T02:13:50.634Z,5.67
2018-04-29T02:16:16.563Z,5.25
2018-04-29T02:18:46.074Z,5.70
2018-04-29T02:21:11.999Z,4.90
2018-04-29T02:23:39.035Z,4.80
2018-04-29T02:26:04.920Z,4.32
2018-04-29T02:28:33.785Z,5.73
2018-04-29T02:30:59.654Z,5.65
2018-04-29T02:33:25.555Z,7.70
2018-04-29T02:35:51.462Z,5.37
2018-04-29T02:38:17.426Z,5.13
2018-04-29T02:40:45.254Z,5.73
2018-04-29T02:43:11.153Z,4.75
2018-04-29T02:45:40.355Z,5.10
2018-04-29T02:48:06.300Z,5.55
2018-04-29T02:50:35.740Z,5.53
2018-04-29T02:53:01.620Z,5.30
2018-04-29T02:55:31.112Z,5.17
2018-04-29T02:57:57.087Z,4.93
2018-04-29T03:00:24.352Z,5.07
2018-04-29T03:02:50.270Z,5.57
2018-04-29T03:05:20.131Z,5.30
2018-04-29T03:07:46.039Z,5.00
2018-04-29T03:10:11.973Z,5.03
2018-04-29T03:12:37.893Z,3.80
2018-04-29T03:15:03.857Z,4.23
2018-04-29T03:17:31.274Z,5.23
2018-04-29T03:19:57.152Z,4.22
2018-04-29T03:22:25.591Z,5.10
2018-04-29T03:24:51.450Z,3.90
2018-04-29T03:27:20.628Z,4.20
2018-04-29T03:29:46.528Z,4.53
2018-04-29T03:32:15.799Z,4.63
2018-04-29T03:34:41.687Z,3.85
2018-04-29T03:37:09.564Z,4.73
2018-04-29T03:39:35.494Z,4.55
2018-04-29T03:42:04.185Z,4.30
2018-04-29T03:44:30.088Z,4.30
2018-04-29T03:46:56.019Z,4.73
2018-04-29T03:49:21.952Z,4.87
2018-04-29T03:51:47.848Z,6.10
2018-04-29T03:54:17.584Z,4.53
2018-04-29T03:56:43.486Z,5.03
2018-04-29T03:59:22.929Z,4.90
2018-04-29T04:02:01.186Z,4.72
2018-04-29T04:04:27.048Z,4.70
2018-04-29T04:06:52.961Z,5.30
2018-04-29T04:09:18.867Z,4.57
2018-04-29T04:11:44.777Z,5.10
2018-04-29T04:14:10.652Z,5.43
2018-04-29T04:16:36.576Z,4.80
2018-04-29T04:19:02.483Z,4.93
2018-04-29T04:21:28.359Z,4.60
2018-04-29T04:23:54.242Z,4.60
2018-04-29T04:26:20.129Z,5.27
2018-04-29T04:28:46.018Z,5.40
2018-04-29T04:31:11.886Z,4.17
2018-04-29T04:33:37.811Z,4.70
2018-04-29T04:36:03.751Z,5.47
2018-04-29T04:38:29.634Z,4.87
2018-04-29T04:40:55.573Z,4.00
2018-04-29T04:43:21.436Z,4.83
2018-04-29T04:45:47.331Z,4.60
2018-04-29T04:48:13.250Z,5.43
2018-04-29T04:50:40.524Z,4.90
2018-04-29T04:53:06.403Z,4.57
2018-04-29T04:55:35.604Z,4.93
2018-04-29T04:58:01.521Z,6.85
2018-04-29T05:00:27.385Z,5.43
2018-04-29T05:02:53.268Z,5.27
2018-04-29T05:05:19.188Z,5.43
2018-04-29T05:07:46.995Z,4.53
2018-04-29T05:10:12.928Z,5.20
2018-04-29T05:12:42.083Z,4.53
2018-04-29T05:15:07.940Z,4.10
2018-04-29T05:17:37.670Z,4.70
2018-04-29T05:20:03.557Z,3.95
2018-04-29T05:22:32.633Z,4.37
2018-04-29T05:24:58.647Z,4.40
2018-04-29T05:27:26.074Z,3.97
2018-04-29T05:29:51.975Z,4.10
2018-04-29T05:32:21.121Z,3.50
2018-04-29T05:34:47.018Z,3.78
2018-04-29T05:37:12.863Z,4.27
2018-04-29T05:39:38.768Z,3.53
2018-04-29T05:42:04.650Z,4.37
2018-04-29T05:44:31.958Z,3.50
2018-04-29T05:46:57.923Z,4.50
2018-04-29T05:49:26.936Z,4.13
2018-04-29T05:51:52.879Z,3.90
2018-04-29T05:54:22.167Z,3.83
2018-04-29T05:56:48.119Z,4.68
2018-04-29T05:59:16.275Z,3.37
2018-04-29T06:01:42.182Z,3.80
2018-04-29T06:04:11.371Z,4.07
2018-04-29T06:06:37.345Z,3.95
2018-04-29T06:09:06.693Z,3.50
2018-04-29T06:11:32.659Z,3.35
2018-04-29T06:13:58.734Z,4.13
2018-04-29T06:16:24.645Z,3.72
2018-04-29T06:18:50.528Z,3.80
2018-04-29T06:21:17.205Z,3.30
2018-04-29T06:23:43.098Z,3.97
2018-04-29T06:26:12.297Z,3.97
2018-04-29T06:28:38.154Z,4.37
2018-04-29T06:31:07.100Z,4.90
2018-04-29T06:33:33.006Z,3.30
2018-04-29T06:36:02.368Z,3.80
2018-04-29T06:38:28.291Z,3.17
2018-04-29T06:40:57.788Z,3.07
2018-04-29T06:43:23.708Z,3.20
2018-04-29T06:45:54.799Z,3.03
2018-04-29T06:48:22.607Z,3.10
2018-04-29T06:50:48.576Z,2.50
2018-04-29T06:53:14.521Z,3.37
2018-04-29T06:55:40.429Z,2.67
2018-04-29T06:58:06.337Z,3.50
2018-04-29T07:00:32.199Z,3.40
2018-04-29T07:02:58.130Z,3.67
2018-04-29T07:05:23.993Z,3.50
2018-04-29T07:07:53.723Z,3.27
2018-04-29T07:10:19.688Z,3.07
2018-04-29T07:12:46.798Z,3.90
2018-04-29T07:15:12.667Z,3.73
2018-04-29T07:17:42.048Z,2.80
2018-04-29T07:20:07.952Z,3.07
2018-04-29T07:22:37.071Z,3.67
2018-04-29T07:25:02.957Z,3.77
2018-04-29T07:27:28.888Z,2.90
2018-04-29T07:29:54.807Z,3.50
2018-04-29T07:32:20.732Z,2.70
2018-04-29T07:34:47.755Z,3.30
2018-04-29T07:37:13.687Z,3.40
2018-04-29T07:39:42.672Z,3.33
2018-04-29T07:42:09.829Z,3.60
2018-04-29T07:44:37.171Z,3.83
2018-04-29T07:47:03.058Z,4.20
2018-04-29T07:49:32.031Z,3.00
2018-04-29T07:51:57.921Z,2.80
2018-04-29T07:54:26.932Z,3.57
2018-04-29T07:56:52.821Z,2.97
2018-04-29T07:59:22.235Z,3.23
2018-04-29T08:01:48.144Z,3.43
2018-04-29T08:04:14.037Z,3.00
2018-04-29T08:06:40.017Z,2.93
2018-04-29T08:09:05.882Z,3.87
2018-04-29T08:11:33.051Z,3.60
2018-04-29T08:14:01.757Z,3.77
2018-04-29T08:16:28.120Z,2.83
2018-04-29T08:18:54.006Z,3.23
2018-04-29T08:21:23.319Z,3.60
2018-04-29T08:23:49.233Z,3.37
2018-04-29T08:26:18.137Z,3.47
2018-04-29T08:28:44.079Z,3.63
2018-04-29T08:31:11.783Z,3.20
2018-04-29T08:33:37.679Z,3.80
2018-04-29T08:36:06.586Z,3.73
2018-04-29T08:38:32.491Z,3.77
2018-04-29T08:40:58.387Z,3.80
2018-04-29T08:43:24.303Z,4.90
2018-04-29T08:45:50.224Z,3.17
2018-04-29T08:48:20.066Z,3.80
2018-04-29T08:50:45.973Z,3.40
2018-04-29T08:53:13.387Z,3.00
2018-04-29T08:55:39.323Z,2.47
2018-04-29T08:58:08.494Z,3.23
2018-04-29T09:00:34.457Z,3.23
2018-04-29T09:03:04.453Z,2.77
2018-04-29T09:05:30.368Z,2.80
2018-04-29T09:07:57.693Z,3.33
2018-04-29T09:10:24.502Z,2.90
2018-04-29T09:12:52.112Z,2.27
2018-04-29T09:15:18.016Z,2.90
2018-04-29T09:17:47.236Z,2.40
2018-04-29T09:20:14.902Z,2.57
2018-04-29T09:22:46.522Z,2.97
2018-04-29T09:25:12.798Z,2.73
2018-04-29T09:27:38.670Z,3.20
2018-04-29T09:30:04.683Z,2.50
2018-04-29T09:32:38.049Z,2.50
2018-04-29T09:35:05.990Z,2.20
2018-04-29T09:37:31.919Z,2.90
2018-04-29T09:39:57.802Z,2.70
2018-04-29T09:42:27.037Z,3.00
2018-04-29T09:44:53.351Z,3.10
2018-04-29T09:47:19.199Z,2.27
2018-04-29T09:49:45.166Z,2.83
2018-04-29T09:52:11.045Z,2.30
2018-04-29T09:54:36.906Z,3.10
2018-04-29T09:57:02.794Z,3.70
2018-04-29T09:59:28.696Z,3.63
2018-04-29T10:01:54.598Z,3.77
2018-04-29T10:04:20.550Z,3.40
2018-04-29T10:06:46.454Z,4.00
2018-04-29T10:09:12.306Z,3.27
2018-04-29T10:11:39.015Z,2.30
2018-04-29T10:14:04.944Z,4.00
2018-04-29T10:16:34.025Z,2.70
2018-04-29T10:18:59.941Z,2.57
2018-04-29T10:21:28.968Z,3.07
2018-04-29T10:23:54.868Z,3.53
2018-04-29T10:26:22.533Z,2.87
2018-04-29T10:29:03.626Z,2.97
2018-04-29T10:31:29.530Z,2.80
2018-04-29T10:33:55.420Z,3.00
2018-04-29T10:36:21.286Z,2.80
2018-04-29T10:38:47.314Z,2.67
2018-04-29T10:41:13.196Z,2.90
2018-04-29T10:43:39.107Z,3.00
2018-04-29T10:46:04.991Z,2.60
2018-04-29T10:48:30.872Z,3.10
2018-04-29T10:50:56.779Z,3.00
2018-04-29T10:53:22.717Z,2.77
2018-04-29T10:55:48.621Z,2.37
2018-04-29T10:58:14.525Z,2.33
2018-04-29T11:00:40.423Z,3.80
2018-04-29T11:03:09.739Z,2.10
2018-04-29T11:05:35.638Z,2.40
2018-04-29T11:08:01.540Z,3.03
2018-04-29T11:10:27.484Z,2.83
2018-04-29T11:12:53.415Z,2.93
2018-04-29T11:15:19.414Z,2.47
2018-04-29T11:17:45.341Z,3.03
2018-04-29T11:20:14.113Z,3.00
2018-04-29T11:22:39.999Z,2.90
2018-04-29T11:25:08.830Z,2.83
2018-04-29T11:27:34.800Z,3.03
2018-04-29T11:30:04.236Z,2.37
2018-04-29T11:32:30.180Z,2.20
2018-04-29T11:34:59.873Z,2.87
2018-04-29T11:37:25.784Z,3.07
2018-04-29T11:39:55.064Z,2.50
2018-04-29T11:42:20.999Z,2.27
2018-04-29T11:44:46.866Z,2.43
2018-04-29T11:47:12.769Z,2.40
2018-04-29T11:49:38.698Z,3.20
2018-04-29T11:52:04.817Z,2.70
2018-04-29T11:54:30.712Z,2.90
2018-04-29T11:56:59.460Z,2.30
2018-04-29T11:59:25.341Z,3.47
2018-04-29T12:01:54.044Z,2.73
2018-04-29T12:04:19.963Z,2.27
2018-04-29T12:06:49.388Z,3.20
2018-04-29T12:09:15.271Z,2.70
2018-04-29T12:11:44.613Z,2.47
2018-04-29T12:14:10.536Z,2.40
2018-04-29T12:16:38.737Z,2.53
2018-04-29T12:19:04.623Z,2.67
2018-04-29T12:21:30.530Z,3.00
2018-04-29T12:23:56.454Z,2.33
2018-04-29T12:26:22.376Z,2.60
2018-04-29T12:28:50.495Z,2.97
2018-04-29T12:31:16.432Z,1.93
2018-04-29T12:33:45.596Z,2.43
2018-04-29T12:36:11.441Z,2.10
2018-04-29T12:38:40.481Z,2.33
2018-04-29T12:41:06.353Z,2.53
2018-04-29T12:43:34.571Z,2.47
2018-04-29T12:46:00.459Z,3.20
2018-04-29T12:48:29.866Z,2.70
2018-04-29T12:50:55.771Z,2.67
2018-04-29T12:53:24.833Z,2.30
2018-04-29T12:55:50.703Z,2.70
2018-04-29T12:58:16.576Z,1.90
2018-04-29T13:00:42.478Z,2.47
2018-04-29T13:03:08.358Z,2.53
2018-04-29T13:05:36.057Z,3.13
2018-04-29T13:08:01.941Z,3.33
2018-04-29T13:10:31.174Z,2.30
2018-04-29T13:12:57.060Z,2.60
2018-04-29T13:15:25.023Z,2.77
2018-04-29T13:17:50.939Z,2.47
2018-04-29T13:20:19.905Z,1.83
2018-04-29T13:22:45.785Z,2.83
2018-04-29T13:25:14.680Z,2.13
2018-04-29T13:27:40.583Z,2.10
2018-04-29T13:30:08.975Z,2.03
2018-04-29T13:32:34.866Z,2.37
2018-04-29T13:35:00.756Z,2.23
2018-04-29T13:37:26.625Z,3.10
2018-04-29T13:39:52.564Z,2.33
2018-04-29T13:42:22.183Z,2.77
2018-04-29T13:44:48.092Z,2.20
2018-04-29T13:47:17.322Z,3.00
2018-04-29T13:49:43.218Z,2.70
2018-04-29T13:52:11.586Z,2.80
2018-04-29T13:54:37.450Z,2.87
2018-04-29T13:57:06.684Z,2.10
2018-04-29T13:59:32.584Z,2.70
2018-04-29T14:01:59.814Z,2.23
2018-04-29T14:04:25.710Z,1.70
2018-04-29T14:06:55.056Z,3.13
2018-04-29T14:09:20.929Z,1.97
2018-04-29T14:11:46.807Z,2.57
2018-04-29T14:14:12.733Z,1.80
2018-04-29T14:16:38.664Z,1.77
2018-04-29T14:19:06.250Z,2.50
2018-04-29T14:21:32.160Z,1.80
2018-04-29T14:24:01.631Z,2.37
2018-04-29T14:26:27.554Z,2.10
2018-04-29T14:28:57.352Z,2.00
2018-04-29T14:31:23.341Z,2.40
2018-04-29T14:33:50.146Z,1.90
2018-04-29T14:36:16.068Z,2.73
2018-04-29T14:38:45.165Z,2.97
2018-04-29T14:41:11.165Z,1.73
2018-04-29T14:43:40.925Z,2.13
2018-04-29T14:46:06.809Z,2.00
2018-04-29T14:48:32.982Z,1.33
2018-04-29T14:50:58.934Z,1.93
2018-04-29T14:53:25.621Z,1.77
2018-04-29T14:55:51.587Z,1.30
2018-04-29T14:58:17.536Z,1.57
2018-04-29T15:00:46.041Z,3.10
2018-04-29T15:03:11.955Z,1.70
2018-04-29T15:05:40.695Z,1.53
2018-04-29T15:08:06.604Z,1.80
2018-04-29T15:10:35.671Z,2.50
2018-04-29T15:13:01.482Z,2.30
2018-04-29T15:15:31.085Z,1.97
2018-04-29T15:17:57.007Z,2.63
2018-04-29T15:20:26.063Z,2.20
2018-04-29T15:22:51.975Z,2.80
2018-04-29T15:25:17.905Z,2.53
2018-04-29T15:27:43.788Z,2.17
2018-04-29T15:30:09.681Z,2.43
2018-04-29T15:32:37.066Z,2.70
2018-04-29T15:35:02.931Z,2.30
2018-04-29T15:37:32.012Z,2.80
2018-04-29T15:39:57.964Z,2.93
2018-04-29T15:42:27.002Z,2.23
2018-04-29T15:44:52.917Z,3.20
2018-04-29T15:47:21.939Z,2.53
2018-04-29T15:49:47.864Z,2.57
2018-04-29T15:52:15.809Z,2.50
2018-04-29T15:54:41.666Z,2.83
2018-04-29T15:57:10.759Z,2.73
2018-04-29T15:59:36.672Z,3.50
2018-04-29T16:02:03.101Z,3.00
2018-04-29T16:04:29.162Z,3.60
2018-04-29T16:06:55.059Z,2.83
2018-04-29T16:09:22.544Z,2.67
2018-04-29T16:11:48.556Z,2.50
2018-04-29T16:14:17.930Z,3.60
2018-04-29T16:16:44.546Z,3.20
2018-04-29T16:19:11.984Z,3.13
2018-04-29T16:21:37.955Z,2.87
2018-04-29T16:24:06.549Z,3.20
2018-04-29T16:26:32.466Z,2.87
2018-04-29T16:29:02.343Z,3.20
2018-04-29T16:31:28.229Z,3.80
2018-04-29T16:33:55.550Z,3.53
2018-04-29T16:36:21.428Z,2.90
2018-04-29T16:38:47.366Z,3.30
2018-04-29T16:41:13.227Z,2.40
2018-04-29T16:43:39.141Z,2.90
2018-04-29T16:46:09.047Z,3.00
2018-04-29T16:48:34.964Z,3.57
2018-04-29T16:51:02.819Z,3.50
2018-04-29T16:53:28.746Z,3.67
2018-04-29T16:55:56.683Z,3.00
2018-04-29T16:58:22.625Z,3.23
2018-04-29T17:00:51.795Z,2.87
2018-04-29T17:03:17.696Z,2.90
2018-04-29T17:05:46.731Z,3.57
2018-04-29T17:08:27.785Z,4.53
2018-04-29T17:10:53.839Z,2.73
2018-04-29T17:13:19.755Z,3.30
2018-04-29T17:15:45.646Z,3.00
2018-04-29T17:18:11.552Z,3.30
2018-04-29T17:20:37.423Z,3.30
2018-04-29T17:23:03.305Z,3.00
2018-04-29T17:25:29.224Z,3.10
2018-04-29T17:27:55.919Z,2.73
2018-04-29T17:30:21.828Z,3.20
2018-04-29T17:32:48.774Z,2.87
2018-04-29T17:35:14.861Z,3.23
2018-04-29T17:37:40.787Z,3.00
2018-04-29T17:40:06.753Z,4.07
2018-04-29T17:42:32.889Z,2.60
2018-04-29T17:44:58.812Z,3.50
2018-04-29T17:47:26.115Z,3.50
2018-04-29T17:49:51.979Z,2.90
2018-04-29T17:52:17.896Z,2.53
2018-04-29T17:54:43.798Z,3.70
2018-04-29T17:57:09.745Z,3.27
2018-04-29T17:59:38.895Z,2.63
2018-04-29T18:02:04.825Z,3.10
2018-04-29T18:04:34.002Z,2.37
2018-04-29T18:06:59.894Z,3.07
2018-04-29T18:09:27.247Z,2.83
2018-04-29T18:11:53.140Z,2.87
2018-04-29T18:14:21.943Z,2.50
2018-04-29T18:16:47.831Z,3.03
2018-04-29T18:19:16.599Z,2.73
2018-04-29T18:21:42.498Z,3.50
2018-04-29T18:24:12.133Z,2.60
2018-04-29T18:26:38.051Z,2.87
2018-04-29T18:29:03.950Z,2.90
2018-04-29T18:31:29.882Z,2.53
2018-04-29T18:33:55.759Z,2.70
2018-04-29T18:36:23.565Z,3.50
2018-04-29T18:38:49.460Z,3.37
2018-04-29T18:41:18.855Z,2.90
2018-04-29T18:43:44.764Z,2.63
2018-04-29T18:46:12.835Z,2.63
2018-04-29T18:48:38.780Z,2.83
2018-04-29T18:51:07.972Z,2.90
2018-04-29T18:53:33.770Z,2.43
2018-04-29T18:56:02.319Z,2.43
2018-04-29T18:58:28.361Z,3.03
2018-04-29T19:00:57.481Z,3.03
2018-04-29T19:03:23.416Z,2.93
2018-04-29T19:06:05.168Z,2.60
2018-04-29T19:08:31.120Z,3.20
2018-04-29T19:10:57.021Z,3.50
2018-04-29T19:13:22.952Z,3.10
2018-04-29T19:15:48.903Z,2.90
2018-04-29T19:18:14.852Z,3.23
2018-04-29T19:20:40.740Z,3.73
2018-04-29T19:23:06.683Z,3.80
2018-04-29T19:25:32.629Z,3.00
2018-04-29T19:27:58.532Z,2.77
2018-04-29T19:30:24.399Z,3.97
2018-04-29T19:32:50.301Z,3.30
2018-04-29T19:35:16.180Z,3.60
2018-04-29T19:37:42.093Z,3.00
2018-04-29T19:40:08.043Z,2.80
2018-04-29T19:42:33.970Z,2.90
2018-04-29T19:44:59.900Z,2.60
2018-04-29T19:47:25.807Z,2.73
2018-04-29T19:49:53.992Z,3.50
2018-04-29T19:52:19.899Z,3.77
2018-04-29T19:54:49.466Z,2.87
2018-04-29T19:57:15.361Z,4.27
2018-04-29T19:59:43.037Z,2.90
2018-04-29T20:02:08.933Z,2.23
2018-04-29T20:04:38.086Z,3.93
2018-04-29T20:07:04.012Z,3.00
2018-04-29T20:09:33.379Z,3.47
2018-04-29T20:11:59.283Z,3.80
2018-04-29T20:14:29.150Z,3.20
2018-04-29T20:16:55.112Z,3.07
2018-04-29T20:19:21.024Z,3.70
2018-04-29T20:21:46.916Z,3.67
2018-04-29T20:24:12.865Z,3.83
2018-04-29T20:26:38.955Z,5.13
2018-04-29T20:29:04.850Z,3.90
2018-04-29T20:31:34.611Z,3.70
2018-04-29T20:34:00.497Z,3.40
2018-04-29T20:36:29.695Z,3.77
2018-04-29T20:38:55.628Z,3.57
2018-04-29T20:41:24.899Z,3.90
2018-04-29T20:43:50.889Z,3.10
2018-04-29T20:46:18.191Z,4.03
2018-04-29T20:48:44.126Z,3.03
2018-04-29T20:51:12.636Z,3.00
2018-04-29T20:53:38.568Z,3.00
2018-04-29T20:56:04.470Z,2.97
2018-04-29T20:58:30.370Z,3.10
2018-04-29T21:00:56.265Z,3.47
2018-04-29T21:03:25.489Z,3.50
2018-04-29T21:05:51.388Z,3.57
2018-04-29T21:08:20.833Z,3.87
2018-04-29T21:10:46.779Z,3.33
2018-04-29T21:13:14.208Z,4.30
2018-04-29T21:15:40.120Z,3.20
2018-04-29T21:18:08.733Z,3.13
2018-04-29T21:20:34.665Z,4.10
2018-04-29T21:23:03.869Z,3.77
2018-04-29T21:25:29.813Z,4.73
2018-04-29T21:27:58.918Z,3.70
2018-04-29T21:30:24.839Z,3.30
2018-04-29T21:32:50.699Z,3.67
2018-04-29T21:35:16.638Z,3.40
2018-04-29T21:37:42.559Z,3.60
2018-04-29T21:40:09.422Z,2.83
2018-04-29T21:42:35.379Z,4.00
2018-04-29T21:45:04.048Z,3.70
2018-04-29T21:47:29.963Z,3.20
2018-04-29T21:49:58.768Z,3.43
2018-04-29T21:52:24.684Z,3.30
2018-04-29T21:54:53.399Z,3.50
2018-04-29T21:57:19.295Z,3.23
2018-04-29T22:02:16.083Z,3.13
2018-04-29T22:04:43.926Z,3.00
2018-04-29T22:07:09.818Z,3.43
2018-04-29T22:09:35.730Z,3.07
2018-04-29T22:12:01.655Z,3.27
2018-04-29T22:14:27.546Z,3.53
2018-04-29T22:16:55.353Z,3.07
2018-04-29T22:19:21.284Z,2.63
2018-04-29T22:21:50.542Z,3.73
2018-04-29T22:24:16.471Z,3.20
2018-04-29T22:26:45.522Z,4.03
2018-04-29T22:29:11.434Z,3.63
2018-04-29T22:31:39.408Z,2.93
2018-04-29T22:34:05.342Z,4.00
2018-04-29T22:36:34.724Z,3.30
2018-04-29T22:39:00.652Z,2.93
2018-04-29T22:41:29.691Z,2.53
2018-04-29T22:43:55.649Z,3.07
2018-04-29T22:46:21.586Z,3.57
2018-04-29T22:48:47.491Z,2.87
2018-04-29T22:51:13.401Z,3.60
2018-04-29T22:53:40.771Z,3.00
2018-04-29T22:56:06.768Z,4.20
2018-04-29T22:58:35.953Z,3.57
2018-04-29T23:01:01.847Z,3.30
2018-04-29T23:03:29.619Z,3.73
2018-04-29T23:05:55.551Z,3.20
2018-04-29T23:08:24.423Z,3.70
2018-04-29T23:10:50.341Z,3.87
2018-04-29T23:13:19.628Z,4.57
2018-04-29T23:15:45.508Z,3.87
2018-04-29T23:18:14.830Z,4.60
2018-04-29T23:20:40.785Z,3.67
2018-04-29T23:23:06.715Z,3.77
2018-04-29T23:25:32.611Z,3.13
2018-04-29T23:27:58.528Z,3.10
2018-04-29T23:30:26.165Z,3.30
2018-04-29T23:32:52.033Z,3.50
2018-04-29T23:35:21.175Z,2.70
2018-04-29T23:37:47.021Z,3.10
2018-04-29T23:40:14.891Z,3.87
2018-04-29T23:42:40.775Z,2.67
2018-04-29T23:45:09.425Z,2.97
2018-04-29T23:47:35.425Z,2.90
2018-04-29T23:50:04.059Z,3.00
2018-04-29T23:52:29.939Z,2.10
2018-04-29T23:54:59.387Z,2.20
2018-04-29T23:57:25.380Z,1.77
2018-04-29T23:59:51.297Z,2.07
